sensor_id;sensor_type;location;lat;lon;timestamp;pressure;altitude;pressure_sealevel;temperature;humidity
2675;BME280;1347;42.122;24.746;2023-11-19T00:01:03;99277.44;;;6.71;76.22
2675;BME280;1347;42.122;24.746;2023-11-19T00:03:31;99270.50;;;6.74;76.58
2675;BME280;1347;42.122;24.746;2023-11-19T00:05:58;99266.63;;;6.75;76.19
2675;BME280;1347;42.122;24.746;2023-11-19T00:08:25;99270.25;;;6.79;76.28
2675;BME280;1347;42.122;24.746;2023-11-19T00:10:52;99230.00;;;6.88;75.39
2675;BME280;1347;42.122;24.746;2023-11-19T00:13:19;99271.22;;;6.86;75.46
2675;BME280;1347;42.122;24.746;2023-11-19T00:15:46;99270.31;;;6.82;75.57
2675;BME280;1347;42.122;24.746;2023-11-19T00:18:14;99271.72;;;6.76;75.81
2675;BME280;1347;42.122;24.746;2023-11-19T00:20:41;99270.75;;;6.84;75.62
2675;BME280;1347;42.122;24.746;2023-11-19T00:23:10;99246.88;;;6.78;76.08
2675;BME280;1347;42.122;24.746;2023-11-19T00:25:37;99260.84;;;6.76;76.29
2675;BME280;1347;42.122;24.746;2023-11-19T00:28:04;99265.94;;;6.78;76.21
2675;BME280;1347;42.122;24.746;2023-11-19T00:30:31;99269.34;;;6.75;76.56
2675;BME280;1347;42.122;24.746;2023-11-19T00:32:58;99271.78;;;6.64;77.25
2675;BME280;1347;42.122;24.746;2023-11-19T00:35:26;99284.84;;;6.71;77.32
2675;BME280;1347;42.122;24.746;2023-11-19T00:37:53;99282.63;;;6.76;77.14
2675;BME280;1347;42.122;24.746;2023-11-19T00:40:20;99285.81;;;6.78;77.06
2675;BME280;1347;42.122;24.746;2023-11-19T00:42:48;99296.59;;;6.75;77.48
2675;BME280;1347;42.122;24.746;2023-11-19T00:45:15;99287.91;;;6.69;77.50
2675;BME280;1347;42.122;24.746;2023-11-19T00:47:42;99291.75;;;6.68;77.62
2675;BME280;1347;42.122;24.746;2023-11-19T00:50:10;99294.13;;;6.70;77.36
2675;BME280;1347;42.122;24.746;2023-11-19T00:52:39;99295.22;;;6.81;76.88
2675;BME280;1347;42.122;24.746;2023-11-19T00:55:07;99288.41;;;6.75;77.01
2675;BME280;1347;42.122;24.746;2023-11-19T00:57:34;99291.59;;;6.77;76.55
2675;BME280;1347;42.122;24.746;2023-11-19T01:00:01;99321.22;;;6.78;76.80
2675;BME280;1347;42.122;24.746;2023-11-19T01:02:32;99309.19;;;6.79;76.55
2675;BME280;1347;42.122;24.746;2023-11-19T01:05:00;99294.75;;;6.79;76.76
2675;BME280;1347;42.122;24.746;2023-11-19T01:07:26;99314.34;;;6.84;76.53
2675;BME280;1347;42.122;24.746;2023-11-19T01:09:56;99298.72;;;6.81;76.71
2675;BME280;1347;42.122;24.746;2023-11-19T01:12:23;99300.72;;;6.69;77.40
2675;BME280;1347;42.122;24.746;2023-11-19T01:14:50;99299.31;;;6.75;77.03
2675;BME280;1347;42.122;24.746;2023-11-19T01:17:17;99297.84;;;6.77;76.95
2675;BME280;1347;42.122;24.746;2023-11-19T01:19:44;99295.34;;;6.72;77.35
2675;BME280;1347;42.122;24.746;2023-11-19T01:22:10;99298.53;;;6.74;77.05
2675;BME280;1347;42.122;24.746;2023-11-19T01:24:37;99312.84;;;6.71;77.38
2675;BME280;1347;42.122;24.746;2023-11-19T01:27:05;99294.59;;;6.72;77.73
2675;BME280;1347;42.122;24.746;2023-11-19T01:29:32;99311.69;;;6.72;77.69
2675;BME280;1347;42.122;24.746;2023-11-19T01:31:59;99299.81;;;6.64;77.90
2675;BME280;1347;42.122;24.746;2023-11-19T01:34:26;99316.16;;;6.64;77.87
2675;BME280;1347;42.122;24.746;2023-11-19T01:36:54;99318.38;;;6.59;77.93
2675;BME280;1347;42.122;24.746;2023-11-19T01:39:20;99316.44;;;6.59;78.42
2675;BME280;1347;42.122;24.746;2023-11-19T01:41:47;99315.47;;;6.68;77.94
2675;BME280;1347;42.122;24.746;2023-11-19T01:44:16;99298.34;;;6.67;78.03
2675;BME280;1347;42.122;24.746;2023-11-19T01:46:44;99309.25;;;6.67;77.51
2675;BME280;1347;42.122;24.746;2023-11-19T01:49:14;99314.78;;;6.71;77.93
2675;BME280;1347;42.122;24.746;2023-11-19T01:51:42;99295.97;;;6.65;77.95
2675;BME280;1347;42.122;24.746;2023-11-19T01:54:09;99303.44;;;6.69;77.71
2675;BME280;1347;42.122;24.746;2023-11-19T01:56:38;99305.28;;;6.64;78.37
2675;BME280;1347;42.122;24.746;2023-11-19T01:59:08;99315.28;;;6.60;78.68
2675;BME280;1347;42.122;24.746;2023-11-19T02:01:37;99322.31;;;6.61;78.31
2675;BME280;1347;42.122;24.746;2023-11-19T02:04:05;99327.16;;;6.68;78.46
2675;BME280;1347;42.122;24.746;2023-11-19T02:06:33;99324.78;;;6.67;78.42
2675;BME280;1347;42.122;24.746;2023-11-19T02:09:01;99321.38;;;6.70;78.26
2675;BME280;1347;42.122;24.746;2023-11-19T02:11:33;99323.66;;;6.68;77.91
2675;BME280;1347;42.122;24.746;2023-11-19T02:14:00;99314.16;;;6.61;78.35
2675;BME280;1347;42.122;24.746;2023-11-19T02:16:28;99312.47;;;6.57;78.76
2675;BME280;1347;42.122;24.746;2023-11-19T02:18:56;99321.44;;;6.57;78.71
2675;BME280;1347;42.122;24.746;2023-11-19T02:21:23;99316.09;;;6.61;78.97
2675;BME280;1347;42.122;24.746;2023-11-19T02:23:50;99315.09;;;6.53;79.55
2675;BME280;1347;42.122;24.746;2023-11-19T02:26:21;99329.03;;;6.52;79.69
2675;BME280;1347;42.122;24.746;2023-11-19T02:28:56;99321.25;;;6.50;79.99
2675;BME280;1347;42.122;24.746;2023-11-19T02:31:23;99341.22;;;6.42;80.27
2675;BME280;1347;42.122;24.746;2023-11-19T02:33:52;99339.88;;;6.36;81.13
2675;BME280;1347;42.122;24.746;2023-11-19T02:36:20;99336.91;;;6.41;81.01
2675;BME280;1347;42.122;24.746;2023-11-19T02:38:47;99345.00;;;6.38;81.31
2675;BME280;1347;42.122;24.746;2023-11-19T02:41:14;99347.59;;;6.34;81.21
2675;BME280;1347;42.122;24.746;2023-11-19T02:43:41;99329.78;;;6.37;81.19
2675;BME280;1347;42.122;24.746;2023-11-19T02:46:09;99340.69;;;6.37;81.00
2675;BME280;1347;42.122;24.746;2023-11-19T02:48:36;99340.91;;;6.32;80.99
2675;BME280;1347;42.122;24.746;2023-11-19T02:51:04;99348.19;;;6.27;81.20
2675;BME280;1347;42.122;24.746;2023-11-19T02:53:34;99335.38;;;6.28;81.14
2675;BME280;1347;42.122;24.746;2023-11-19T02:56:03;99341.28;;;6.30;81.12
2675;BME280;1347;42.122;24.746;2023-11-19T02:58:37;99349.53;;;6.34;80.90
2675;BME280;1347;42.122;24.746;2023-11-19T03:01:04;99347.16;;;6.32;80.54
2675;BME280;1347;42.122;24.746;2023-11-19T03:03:50;99339.53;;;6.38;80.62
2675;BME280;1347;42.122;24.746;2023-11-19T03:06:20;99332.97;;;6.39;80.62
2675;BME280;1347;42.122;24.746;2023-11-19T03:08:48;99324.69;;;6.35;80.25
2675;BME280;1347;42.122;24.746;2023-11-19T03:11:15;99326.28;;;6.36;79.92
2675;BME280;1347;42.122;24.746;2023-11-19T03:13:45;99329.22;;;6.31;80.41
2675;BME280;1347;42.122;24.746;2023-11-19T03:16:12;99331.53;;;6.29;80.64
2675;BME280;1347;42.122;24.746;2023-11-19T03:18:39;99328.09;;;6.32;80.11
2675;BME280;1347;42.122;24.746;2023-11-19T03:21:08;99335.13;;;6.33;79.89
2675;BME280;1347;42.122;24.746;2023-11-19T03:23:35;99329.16;;;6.27;80.02
2675;BME280;1347;42.122;24.746;2023-11-19T03:26:01;99333.78;;;6.27;79.79
2675;BME280;1347;42.122;24.746;2023-11-19T03:28:31;99327.09;;;6.24;79.28
2675;BME280;1347;42.122;24.746;2023-11-19T03:30:57;99326.31;;;6.24;79.23
2675;BME280;1347;42.122;24.746;2023-11-19T03:33:24;99327.31;;;6.32;78.82
2675;BME280;1347;42.122;24.746;2023-11-19T03:35:53;99326.16;;;6.33;78.86
2675;BME280;1347;42.122;24.746;2023-11-19T03:38:23;99337.06;;;6.33;78.30
2675;BME280;1347;42.122;24.746;2023-11-19T03:40:50;99331.38;;;6.38;78.05
2675;BME280;1347;42.122;24.746;2023-11-19T03:43:16;99307.56;;;6.35;78.02
2675;BME280;1347;42.122;24.746;2023-11-19T03:45:44;99340.13;;;6.31;78.42
2675;BME280;1347;42.122;24.746;2023-11-19T03:48:11;99322.06;;;6.39;77.95
2675;BME280;1347;42.122;24.746;2023-11-19T03:50:38;99335.13;;;6.33;77.84
2675;BME280;1347;42.122;24.746;2023-11-19T03:53:05;99332.75;;;6.32;78.08
2675;BME280;1347;42.122;24.746;2023-11-19T03:55:35;99323.03;;;6.31;77.61
2675;BME280;1347;42.122;24.746;2023-11-19T03:58:02;99323.78;;;6.31;77.61
2675;BME280;1347;42.122;24.746;2023-11-19T04:00:29;99327.56;;;6.26;77.64
2675;BME280;1347;42.122;24.746;2023-11-19T04:02:56;99316.88;;;6.34;77.44
2675;BME280;1347;42.122;24.746;2023-11-19T04:05:22;99323.56;;;6.36;76.76
2675;BME280;1347;42.122;24.746;2023-11-19T04:07:49;99313.69;;;6.32;77.04
2675;BME280;1347;42.122;24.746;2023-11-19T04:10:16;99331.19;;;6.31;77.21
2675;BME280;1347;42.122;24.746;2023-11-19T04:12:45;99334.00;;;6.34;77.28
2675;BME280;1347;42.122;24.746;2023-11-19T04:15:12;99329.81;;;6.24;78.13
2675;BME280;1347;42.122;24.746;2023-11-19T04:17:39;99348.75;;;6.21;78.73
2675;BME280;1347;42.122;24.746;2023-11-19T04:20:07;99340.06;;;6.15;79.47
2675;BME280;1347;42.122;24.746;2023-11-19T04:22:36;99348.16;;;6.00;80.51
2675;BME280;1347;42.122;24.746;2023-11-19T04:25:04;99349.84;;;6.04;80.54
2675;BME280;1347;42.122;24.746;2023-11-19T04:27:31;99339.88;;;5.96;80.75
2675;BME280;1347;42.122;24.746;2023-11-19T04:29:59;99357.34;;;5.95;80.96
2675;BME280;1347;42.122;24.746;2023-11-19T04:32:29;99357.13;;;5.88;80.63
2675;BME280;1347;42.122;24.746;2023-11-19T04:34:55;99366.38;;;5.87;80.38
2675;BME280;1347;42.122;24.746;2023-11-19T04:37:22;99369.22;;;5.78;80.63
2675;BME280;1347;42.122;24.746;2023-11-19T04:39:50;99369.13;;;5.99;79.66
2675;BME280;1347;42.122;24.746;2023-11-19T04:42:17;99383.75;;;5.95;78.49
2675;BME280;1347;42.122;24.746;2023-11-19T04:44:43;99360.84;;;5.96;78.42
2675;BME280;1347;42.122;24.746;2023-11-19T04:47:12;99363.56;;;5.96;78.45
2675;BME280;1347;42.122;24.746;2023-11-19T04:49:40;99365.94;;;5.97;78.45
2675;BME280;1347;42.122;24.746;2023-11-19T04:52:08;99378.50;;;6.02;78.10
2675;BME280;1347;42.122;24.746;2023-11-19T04:54:35;99387.25;;;5.95;78.24
2675;BME280;1347;42.122;24.746;2023-11-19T04:57:02;99377.06;;;5.92;78.39
2675;BME280;1347;42.122;24.746;2023-11-19T04:59:29;99383.50;;;5.87;78.69
2675;BME280;1347;42.122;24.746;2023-11-19T05:01:56;99369.09;;;5.87;78.83
2675;BME280;1347;42.122;24.746;2023-11-19T05:04:24;99356.63;;;5.86;78.66
2675;BME280;1347;42.122;24.746;2023-11-19T05:06:51;99375.91;;;5.81;79.01
2675;BME280;1347;42.122;24.746;2023-11-19T05:09:18;99376.34;;;5.83;78.85
2675;BME280;1347;42.122;24.746;2023-11-19T05:11:45;99373.19;;;5.81;79.10
2675;BME280;1347;42.122;24.746;2023-11-19T05:14:12;99376.13;;;5.76;79.15
2675;BME280;1347;42.122;24.746;2023-11-19T05:16:39;99376.03;;;5.72;79.63
2675;BME280;1347;42.122;24.746;2023-11-19T05:19:06;99369.78;;;5.72;79.33
2675;BME280;1347;42.122;24.746;2023-11-19T05:21:35;99383.97;;;5.65;79.36
2675;BME280;1347;42.122;24.746;2023-11-19T05:24:03;99382.38;;;5.64;79.57
2675;BME280;1347;42.122;24.746;2023-11-19T05:26:31;99385.41;;;5.63;79.12
2675;BME280;1347;42.122;24.746;2023-11-19T05:28:58;99396.28;;;5.63;79.49
2675;BME280;1347;42.122;24.746;2023-11-19T05:31:24;99404.34;;;5.71;79.26
2675;BME280;1347;42.122;24.746;2023-11-19T05:33:52;99401.06;;;5.66;79.17
2675;BME280;1347;42.122;24.746;2023-11-19T05:36:19;99404.47;;;5.63;79.65
2675;BME280;1347;42.122;24.746;2023-11-19T05:38:47;99410.81;;;5.67;79.18
2675;BME280;1347;42.122;24.746;2023-11-19T05:41:14;99416.34;;;5.70;79.24
2675;BME280;1347;42.122;24.746;2023-11-19T05:43:41;99427.47;;;5.65;79.39
2675;BME280;1347;42.122;24.746;2023-11-19T05:46:08;99426.53;;;5.61;79.26
2675;BME280;1347;42.122;24.746;2023-11-19T05:48:35;99398.34;;;5.66;79.30
2675;BME280;1347;42.122;24.746;2023-11-19T05:51:02;99435.16;;;5.63;79.13
2675;BME280;1347;42.122;24.746;2023-11-19T05:53:29;99434.28;;;5.59;79.49
2675;BME280;1347;42.122;24.746;2023-11-19T05:55:57;99418.75;;;5.60;79.76
2675;BME280;1347;42.122;24.746;2023-11-19T05:58:28;99419.88;;;5.59;79.67
2675;BME280;1347;42.122;24.746;2023-11-19T06:00:56;99434.28;;;5.59;79.59
2675;BME280;1347;42.122;24.746;2023-11-19T06:03:23;99417.03;;;5.67;79.38
2675;BME280;1347;42.122;24.746;2023-11-19T06:05:50;99412.94;;;5.61;79.56
2675;BME280;1347;42.122;24.746;2023-11-19T06:08:17;99418.63;;;5.68;79.15
2675;BME280;1347;42.122;24.746;2023-11-19T06:10:46;99412.41;;;5.68;79.12
2675;BME280;1347;42.122;24.746;2023-11-19T06:13:17;99412.50;;;5.71;79.03
2675;BME280;1347;42.122;24.746;2023-11-19T06:15:45;99428.94;;;5.75;79.06
2675;BME280;1347;42.122;24.746;2023-11-19T06:18:12;99431.56;;;5.83;78.53
2675;BME280;1347;42.122;24.746;2023-11-19T06:20:40;99433.75;;;5.90;78.64
2675;BME280;1347;42.122;24.746;2023-11-19T06:23:07;99449.38;;;5.93;78.30
2675;BME280;1347;42.122;24.746;2023-11-19T06:25:34;99464.34;;;5.99;77.97
2675;BME280;1347;42.122;24.746;2023-11-19T06:28:01;99452.44;;;6.04;77.91
2675;BME280;1347;42.122;24.746;2023-11-19T06:30:30;99470.81;;;6.07;77.83
2675;BME280;1347;42.122;24.746;2023-11-19T06:32:58;99461.72;;;6.15;77.56
2675;BME280;1347;42.122;24.746;2023-11-19T06:35:24;99472.41;;;6.20;77.22
2675;BME280;1347;42.122;24.746;2023-11-19T06:37:51;99465.03;;;6.20;77.44
2675;BME280;1347;42.122;24.746;2023-11-19T06:40:18;99470.09;;;6.34;77.87
2675;BME280;1347;42.122;24.746;2023-11-19T06:42:46;99479.97;;;6.39;77.06
2675;BME280;1347;42.122;24.746;2023-11-19T06:45:12;99459.53;;;6.45;76.71
2675;BME280;1347;42.122;24.746;2023-11-19T06:47:41;99476.09;;;6.52;75.65
2675;BME280;1347;42.122;24.746;2023-11-19T06:50:08;99491.28;;;6.53;75.51
2675;BME280;1347;42.122;24.746;2023-11-19T06:52:35;99476.88;;;6.52;75.56
2675;BME280;1347;42.122;24.746;2023-11-19T06:55:03;99463.50;;;6.59;75.21
2675;BME280;1347;42.122;24.746;2023-11-19T06:57:30;99471.75;;;6.63;75.05
2675;BME280;1347;42.122;24.746;2023-11-19T06:59:57;99439.97;;;6.67;74.58
2675;BME280;1347;42.122;24.746;2023-11-19T07:02:25;99461.88;;;6.71;74.52
2675;BME280;1347;42.122;24.746;2023-11-19T07:04:53;99485.94;;;6.69;74.63
2675;BME280;1347;42.122;24.746;2023-11-19T07:07:20;99458.09;;;6.75;74.24
2675;BME280;1347;42.122;24.746;2023-11-19T07:09:47;99460.25;;;6.82;74.40
2675;BME280;1347;42.122;24.746;2023-11-19T07:12:13;99459.56;;;7.72;72.67
2675;BME280;1347;42.122;24.746;2023-11-19T07:14:41;99446.97;;;9.91;64.52
2675;BME280;1347;42.122;24.746;2023-11-19T07:17:08;99447.31;;;11.69;59.50
2675;BME280;1347;42.122;24.746;2023-11-19T07:19:35;99436.13;;;13.37;53.28
2675;BME280;1347;42.122;24.746;2023-11-19T07:22:05;99447.97;;;13.52;52.02
2675;BME280;1347;42.122;24.746;2023-11-19T07:24:32;99457.78;;;14.66;49.26
2675;BME280;1347;42.122;24.746;2023-11-19T07:26:59;99476.03;;;15.37;46.48
2675;BME280;1347;42.122;24.746;2023-11-19T07:29:29;99507.56;;;17.66;42.34
2675;BME280;1347;42.122;24.746;2023-11-19T07:31:57;99520.91;;;17.75;40.41
2675;BME280;1347;42.122;24.746;2023-11-19T07:34:24;99537.09;;;17.46;41.03
2675;BME280;1347;42.122;24.746;2023-11-19T07:36:51;99522.09;;;18.51;39.42
2675;BME280;1347;42.122;24.746;2023-11-19T07:39:19;99518.44;;;19.60;37.37
2675;BME280;1347;42.122;24.746;2023-11-19T07:41:47;99494.44;;;18.44;37.52
2675;BME280;1347;42.122;24.746;2023-11-19T07:44:14;99522.78;;;19.41;35.89
2675;BME280;1347;42.122;24.746;2023-11-19T07:46:41;99534.50;;;19.52;34.68
2675;BME280;1347;42.122;24.746;2023-11-19T07:49:08;99540.28;;;19.77;35.04
2675;BME280;1347;42.122;24.746;2023-11-19T07:51:35;99530.94;;;19.88;34.59
2675;BME280;1347;42.122;24.746;2023-11-19T07:54:02;99543.59;;;21.18;33.06
2675;BME280;1347;42.122;24.746;2023-11-19T07:56:31;99548.47;;;21.43;32.05
2675;BME280;1347;42.122;24.746;2023-11-19T07:58:59;99573.25;;;20.96;32.46
2675;BME280;1347;42.122;24.746;2023-11-19T08:01:26;99587.03;;;20.71;33.04
2675;BME280;1347;42.122;24.746;2023-11-19T08:03:53;99570.16;;;20.62;32.83
2675;BME280;1347;42.122;24.746;2023-11-19T08:06:20;99575.31;;;21.79;31.87
2675;BME280;1347;42.122;24.746;2023-11-19T08:08:47;99564.16;;;21.08;32.55
2675;BME280;1347;42.122;24.746;2023-11-19T08:11:14;99558.97;;;18.98;33.88
2675;BME280;1347;42.122;24.746;2023-11-19T08:13:43;99580.56;;;20.90;32.56
2675;BME280;1347;42.122;24.746;2023-11-19T08:16:09;99571.38;;;20.44;32.01
2675;BME280;1347;42.122;24.746;2023-11-19T08:18:37;99576.78;;;20.51;32.42
2675;BME280;1347;42.122;24.746;2023-11-19T08:21:04;99581.13;;;19.64;34.03
2675;BME280;1347;42.122;24.746;2023-11-19T08:23:31;99584.56;;;18.86;34.94
2675;BME280;1347;42.122;24.746;2023-11-19T08:25:58;99593.91;;;19.19;35.03
2675;BME280;1347;42.122;24.746;2023-11-19T08:28:25;99603.94;;;17.85;36.39
2675;BME280;1347;42.122;24.746;2023-11-19T08:30:54;99596.00;;;17.53;36.82
2675;BME280;1347;42.122;24.746;2023-11-19T08:33:21;99580.13;;;16.86;37.75
2675;BME280;1347;42.122;24.746;2023-11-19T08:35:48;99591.69;;;15.31;40.19
2675;BME280;1347;42.122;24.746;2023-11-19T08:38:15;99593.69;;;14.07;42.53
2675;BME280;1347;42.122;24.746;2023-11-19T08:40:42;99593.31;;;13.11;44.86
2675;BME280;1347;42.122;24.746;2023-11-19T08:43:09;99561.38;;;12.99;45.11
2675;BME280;1347;42.122;24.746;2023-11-19T08:45:36;99586.91;;;12.41;46.80
2675;BME280;1347;42.122;24.746;2023-11-19T08:48:05;99575.47;;;12.36;47.54
2675;BME280;1347;42.122;24.746;2023-11-19T08:50:32;99565.38;;;11.69;48.98
2675;BME280;1347;42.122;24.746;2023-11-19T08:52:59;99570.94;;;11.43;49.20
2675;BME280;1347;42.122;24.746;2023-11-19T08:55:26;99570.50;;;11.07;50.17
2675;BME280;1347;42.122;24.746;2023-11-19T08:57:53;99581.13;;;11.13;50.01
2675;BME280;1347;42.122;24.746;2023-11-19T09:00:20;99591.91;;;10.98;50.97
2675;BME280;1347;42.122;24.746;2023-11-19T09:02:46;99587.78;;;11.12;51.46
2675;BME280;1347;42.122;24.746;2023-11-19T09:05:15;99583.16;;;10.89;50.31
2675;BME280;1347;42.122;24.746;2023-11-19T09:07:42;99574.63;;;10.94;51.14
2675;BME280;1347;42.122;24.746;2023-11-19T09:10:09;99551.88;;;10.94;50.88
2675;BME280;1347;42.122;24.746;2023-11-19T09:12:37;99550.88;;;11.05;51.02
2675;BME280;1347;42.122;24.746;2023-11-19T09:15:04;99549.63;;;11.33;50.27
2675;BME280;1347;42.122;24.746;2023-11-19T09:17:32;99556.41;;;11.42;49.66
2675;BME280;1347;42.122;24.746;2023-11-19T09:19:59;99555.88;;;11.30;49.96
2675;BME280;1347;42.122;24.746;2023-11-19T09:22:27;99553.78;;;11.50;48.99
2675;BME280;1347;42.122;24.746;2023-11-19T09:24:54;99555.97;;;11.37;49.22
2675;BME280;1347;42.122;24.746;2023-11-19T09:27:21;99567.09;;;11.51;49.98
2675;BME280;1347;42.122;24.746;2023-11-19T09:29:48;99561.50;;;11.74;48.67
2675;BME280;1347;42.122;24.746;2023-11-19T09:32:20;99572.09;;;12.12;47.87
2675;BME280;1347;42.122;24.746;2023-11-19T09:34:47;99574.31;;;12.37;47.42
2675;BME280;1347;42.122;24.746;2023-11-19T09:37:14;99534.84;;;12.66;45.75
2675;BME280;1347;42.122;24.746;2023-11-19T09:39:42;99558.19;;;12.94;45.26
2675;BME280;1347;42.122;24.746;2023-11-19T09:42:09;99566.09;;;12.99;44.42
2675;BME280;1347;42.122;24.746;2023-11-19T09:44:37;99548.97;;;12.65;45.16
2675;BME280;1347;42.122;24.746;2023-11-19T09:47:05;99552.78;;;12.02;47.64
2675;BME280;1347;42.122;24.746;2023-11-19T09:49:35;99547.59;;;11.93;47.55
2675;BME280;1347;42.122;24.746;2023-11-19T09:52:02;99567.22;;;11.62;48.06
2675;BME280;1347;42.122;24.746;2023-11-19T09:54:29;99573.75;;;11.17;48.91
2675;BME280;1347;42.122;24.746;2023-11-19T09:56:59;99580.88;;;10.95;49.15
2675;BME280;1347;42.122;24.746;2023-11-19T09:59:29;99581.19;;;10.90;50.37
2675;BME280;1347;42.122;24.746;2023-11-19T10:01:56;99574.56;;;10.64;50.66
2675;BME280;1347;42.122;24.746;2023-11-19T10:04:23;99574.09;;;10.85;50.59
2675;BME280;1347;42.122;24.746;2023-11-19T10:06:52;99563.06;;;10.82;50.33
2675;BME280;1347;42.122;24.746;2023-11-19T10:09:19;99564.28;;;10.84;50.73
2675;BME280;1347;42.122;24.746;2023-11-19T10:11:46;99557.25;;;10.60;50.71
2675;BME280;1347;42.122;24.746;2023-11-19T10:14:15;99562.13;;;10.21;50.95
2675;BME280;1347;42.122;24.746;2023-11-19T10:16:44;99550.38;;;10.21;51.42
2675;BME280;1347;42.122;24.746;2023-11-19T10:19:12;99539.16;;;10.29;51.39
2675;BME280;1347;42.122;24.746;2023-11-19T10:21:45;99543.38;;;10.23;51.61
2675;BME280;1347;42.122;24.746;2023-11-19T10:24:12;99558.81;;;10.12;52.14
2675;BME280;1347;42.122;24.746;2023-11-19T10:26:40;99541.16;;;10.10;51.30
2675;BME280;1347;42.122;24.746;2023-11-19T10:29:08;99542.84;;;9.95;52.16
2675;BME280;1347;42.122;24.746;2023-11-19T10:31:36;99530.50;;;9.82;52.61
2675;BME280;1347;42.122;24.746;2023-11-19T10:34:03;99537.44;;;9.98;53.08
2675;BME280;1347;42.122;24.746;2023-11-19T10:36:39;99534.28;;;10.19;52.35
2675;BME280;1347;42.122;24.746;2023-11-19T10:39:08;99512.81;;;10.21;52.09
2675;BME280;1347;42.122;24.746;2023-11-19T10:41:35;99478.41;;;10.24;51.46
2675;BME280;1347;42.122;24.746;2023-11-19T10:44:02;99521.38;;;10.20;52.05
2675;BME280;1347;42.122;24.746;2023-11-19T10:46:39;99522.84;;;10.14;51.94
2675;BME280;1347;42.122;24.746;2023-11-19T10:49:06;99469.66;;;9.92;52.73
2675;BME280;1347;42.122;24.746;2023-11-19T10:51:33;99504.03;;;9.89;51.70
2675;BME280;1347;42.122;24.746;2023-11-19T10:54:02;99505.13;;;9.85;52.52
2675;BME280;1347;42.122;24.746;2023-11-19T10:56:31;99499.84;;;9.95;52.95
2675;BME280;1347;42.122;24.746;2023-11-19T10:58:59;99502.63;;;9.99;52.65
2675;BME280;1347;42.122;24.746;2023-11-19T11:01:34;99502.94;;;9.94;52.32
2675;BME280;1347;42.122;24.746;2023-11-19T11:04:05;99496.75;;;9.97;52.05
2675;BME280;1347;42.122;24.746;2023-11-19T11:06:38;99495.44;;;10.14;52.44
2675;BME280;1347;42.122;24.746;2023-11-19T11:09:06;99508.41;;;10.17;51.83
2675;BME280;1347;42.122;24.746;2023-11-19T11:11:38;99526.56;;;10.25;51.62
2675;BME280;1347;42.122;24.746;2023-11-19T11:14:07;99503.38;;;10.19;52.06
2675;BME280;1347;42.122;24.746;2023-11-19T11:16:34;99514.84;;;10.28;52.05
2675;BME280;1347;42.122;24.746;2023-11-19T11:19:02;99504.69;;;10.28;51.45
2675;BME280;1347;42.122;24.746;2023-11-19T11:21:32;99507.19;;;10.37;51.39
2675;BME280;1347;42.122;24.746;2023-11-19T11:24:18;99505.28;;;10.41;51.19
2675;BME280;1347;42.122;24.746;2023-11-19T11:26:59;99486.44;;;10.13;51.68
2675;BME280;1347;42.122;24.746;2023-11-19T11:29:37;99496.16;;;10.11;52.30
2675;BME280;1347;42.122;24.746;2023-11-19T11:32:12;99464.09;;;10.11;51.23
2675;BME280;1347;42.122;24.746;2023-11-19T11:34:58;99481.94;;;10.02;51.92
2675;BME280;1347;42.122;24.746;2023-11-19T11:37:33;99464.19;;;9.92;51.80
2675;BME280;1347;42.122;24.746;2023-11-19T11:40:02;99445.66;;;10.08;52.00
2675;BME280;1347;42.122;24.746;2023-11-19T11:42:36;99420.41;;;10.18;51.97
2675;BME280;1347;42.122;24.746;2023-11-19T11:45:05;99449.59;;;10.11;52.01
2675;BME280;1347;42.122;24.746;2023-11-19T11:48:08;99414.38;;;10.09;51.95
2675;BME280;1347;42.122;24.746;2023-11-19T11:50:50;99450.47;;;10.15;51.92
2675;BME280;1347;42.122;24.746;2023-11-19T11:53:20;99437.19;;;10.17;51.90
2675;BME280;1347;42.122;24.746;2023-11-19T11:56:09;99425.69;;;10.08;52.61
2675;BME280;1347;42.122;24.746;2023-11-19T11:58:36;99397.03;;;10.02;52.95
2675;BME280;1347;42.122;24.746;2023-11-19T12:01:07;99420.47;;;9.99;53.34
2675;BME280;1347;42.122;24.746;2023-11-19T12:03:34;99404.53;;;10.05;52.50
2675;BME280;1347;42.122;24.746;2023-11-19T12:06:01;99416.41;;;9.89;52.07
2675;BME280;1347;42.122;24.746;2023-11-19T12:08:30;99408.72;;;9.98;52.86
2675;BME280;1347;42.122;24.746;2023-11-19T12:10:58;99399.16;;;9.85;52.96
2675;BME280;1347;42.122;24.746;2023-11-19T12:13:42;99410.50;;;9.87;53.30
2675;BME280;1347;42.122;24.746;2023-11-19T12:16:11;99426.41;;;9.78;53.47
2675;BME280;1347;42.122;24.746;2023-11-19T12:18:39;99418.69;;;9.84;53.45
2675;BME280;1347;42.122;24.746;2023-11-19T12:21:10;99425.19;;;9.76;54.08
2675;BME280;1347;42.122;24.746;2023-11-19T12:23:45;99389.03;;;9.89;53.67
2675;BME280;1347;42.122;24.746;2023-11-19T12:26:37;99421.53;;;9.91;53.59
2675;BME280;1347;42.122;24.746;2023-11-19T12:29:04;99399.94;;;9.86;53.91
2675;BME280;1347;42.122;24.746;2023-11-19T12:31:32;99400.50;;;9.98;53.82
2675;BME280;1347;42.122;24.746;2023-11-19T12:34:05;99402.88;;;10.00;53.45
2675;BME280;1347;42.122;24.746;2023-11-19T12:36:34;99402.06;;;9.96;53.84
2675;BME280;1347;42.122;24.746;2023-11-19T12:39:02;99405.16;;;9.94;53.70
2675;BME280;1347;42.122;24.746;2023-11-19T12:41:30;99403.31;;;10.02;53.66
2675;BME280;1347;42.122;24.746;2023-11-19T12:44:09;99409.84;;;9.94;53.68
2675;BME280;1347;42.122;24.746;2023-11-19T12:46:36;99391.06;;;9.70;53.66
2675;BME280;1347;42.122;24.746;2023-11-19T12:49:03;99407.91;;;9.72;54.17
2675;BME280;1347;42.122;24.746;2023-11-19T12:51:31;99383.47;;;9.82;54.51
2675;BME280;1347;42.122;24.746;2023-11-19T12:53:58;99406.56;;;9.85;54.21
2675;BME280;1347;42.122;24.746;2023-11-19T12:56:27;99392.22;;;9.69;54.77
2675;BME280;1347;42.122;24.746;2023-11-19T12:58:55;99398.63;;;9.76;54.42
2675;BME280;1347;42.122;24.746;2023-11-19T13:01:22;99395.50;;;9.78;55.35
2675;BME280;1347;42.122;24.746;2023-11-19T13:03:49;99393.25;;;9.83;55.20
2675;BME280;1347;42.122;24.746;2023-11-19T13:06:16;99396.41;;;9.85;55.07
2675;BME280;1347;42.122;24.746;2023-11-19T13:08:47;99400.34;;;9.88;55.06
2675;BME280;1347;42.122;24.746;2023-11-19T13:11:33;99387.84;;;9.87;55.20
2675;BME280;1347;42.122;24.746;2023-11-19T13:14:03;99391.78;;;9.89;54.89
2675;BME280;1347;42.122;24.746;2023-11-19T13:16:31;99385.94;;;9.91;55.33
2675;BME280;1347;42.122;24.746;2023-11-19T13:18:58;99369.94;;;9.93;54.20
2675;BME280;1347;42.122;24.746;2023-11-19T13:21:25;99362.41;;;9.86;54.73
2675;BME280;1347;42.122;24.746;2023-11-19T13:23:52;99369.69;;;9.79;54.83